createdAt,value
2018-10-01T05:49:53.517Z,16.50
2018-10-01T05:50:29.458Z,12.50
2018-10-01T05:51:04.658Z,8.60
2018-10-01T05:51:40.148Z,8.80
2018-10-01T05:52:15.293Z,10.30
2018-10-01T05:52:50.642Z,14.10
2018-10-01T05:53:25.818Z,13.90
2018-10-01T05:54:01.385Z,11.70
2018-10-01T05:54:37.200Z,18.40
2018-10-01T05:55:12.490Z,13.50
2018-10-01T05:55:48.124Z,12.00
2018-10-01T05:56:23.172Z,14.30
2018-10-01T05:56:58.470Z,13.50
2018-10-01T05:57:33.854Z,12.50
2018-10-01T05:58:09.325Z,18.20
2018-10-01T05:58:44.558Z,14.10
2018-10-01T05:59:19.947Z,10.30
2018-10-01T05:59:55.318Z,12.00
2018-10-01T06:00:30.724Z,11.60
2018-10-01T06:01:06.358Z,10.50
2018-10-01T06:01:41.799Z,10.30
2018-10-01T06:02:17.250Z,14.20
2018-10-01T06:02:52.626Z,14.50
2018-10-01T06:03:28.208Z,14.20
2018-10-01T06:04:03.489Z,12.00
2018-10-01T06:04:38.923Z,11.80
2018-10-01T06:05:14.410Z,10.50
2018-10-01T06:05:49.650Z,14.40
2018-10-01T06:06:25.125Z,14.20
2018-10-01T06:07:00.758Z,12.30
2018-10-01T06:07:36.175Z,11.10
2018-10-01T06:08:11.651Z,13.70
2018-10-01T06:08:47.350Z,13.30
2018-10-01T06:09:22.960Z,10.50
2018-10-01T06:09:58.511Z,9.90
2018-10-01T06:10:34.041Z,13.00
2018-10-01T06:11:09.797Z,16.90
2018-10-01T06:11:46.165Z,15.80
2018-10-01T06:12:22.156Z,13.30
2018-10-01T06:12:57.528Z,13.50
2018-10-01T06:13:32.914Z,14.70
2018-10-01T06:14:08.435Z,18.80
2018-10-01T06:14:43.548Z,14.00
2018-10-01T06:15:19.138Z,14.10
2018-10-01T06:15:54.930Z,14.80
2018-10-01T06:16:30.539Z,15.90
2018-10-01T06:17:05.835Z,18.60
2018-10-01T06:17:41.179Z,12.60
2018-10-01T06:18:16.816Z,17.40
2018-10-01T06:18:52.098Z,16.30
2018-10-01T06:19:27.546Z,13.00
2018-10-01T06:20:02.984Z,12.80
2018-10-01T06:20:38.317Z,10.40
2018-10-01T06:21:13.713Z,8.00
2018-10-01T06:21:48.973Z,8.10
2018-10-01T06:22:24.365Z,15.90
2018-10-01T06:22:59.790Z,16.50
2018-10-01T06:23:35.235Z,10.30
2018-10-01T06:24:10.536Z,11.50
2018-10-01T06:24:46.166Z,12.90
2018-10-01T06:25:21.670Z,16.40
2018-10-01T06:25:57.309Z,13.70
2018-10-01T06:26:32.887Z,9.50
2018-10-01T06:27:08.324Z,12.00
2018-10-01T06:27:43.505Z,15.50
2018-10-01T06:28:19.061Z,16.20
2018-10-01T06:28:54.488Z,13.00
2018-10-01T06:29:29.850Z,9.00
2018-10-01T06:30:05.197Z,10.40
2018-10-01T06:30:40.481Z,11.10
2018-10-01T06:31:15.831Z,11.90
2018-10-01T06:31:51.358Z,13.20
2018-10-01T06:32:26.787Z,15.60
2018-10-01T06:33:01.990Z,15.90
2018-10-01T06:33:37.401Z,18.00
2018-10-01T06:34:12.718Z,14.60
2018-10-01T06:34:48.038Z,10.60
2018-10-01T06:35:23.424Z,12.90
2018-10-01T06:35:58.842Z,12.70
2018-10-01T06:36:34.176Z,14.10
2018-10-01T06:37:09.678Z,11.60
2018-10-01T06:37:45.017Z,9.30
2018-10-01T06:38:20.547Z,10.90
2018-10-01T06:38:56.085Z,11.60
2018-10-01T06:39:31.381Z,12.20
2018-10-01T06:40:06.647Z,13.40
2018-10-01T06:40:42.136Z,13.00
2018-10-01T06:41:17.427Z,11.70
2018-10-01T06:41:52.833Z,8.80
2018-10-01T06:42:28.441Z,9.50
2018-10-01T06:43:03.892Z,11.80
2018-10-01T06:43:39.258Z,12.50
2018-10-01T06:44:14.776Z,10.70
2018-10-01T06:44:50.018Z,10.20
2018-10-01T06:45:25.231Z,12.70
2018-10-01T06:46:00.556Z,12.70
2018-10-01T06:46:36.198Z,16.30
2018-10-01T06:47:11.475Z,17.00
2018-10-01T06:47:46.965Z,12.30
2018-10-01T06:48:22.304Z,11.90
2018-10-01T06:48:57.503Z,9.50
2018-10-01T06:49:33.009Z,9.70
2018-10-01T06:50:08.016Z,11.60
2018-10-01T06:50:43.450Z,11.70
2018-10-01T06:51:18.630Z,9.50
2018-10-01T06:51:53.839Z,9.90
2018-10-01T06:52:29.258Z,9.80
2018-10-01T06:53:04.974Z,10.60
2018-10-01T06:53:40.378Z,9.30
2018-10-01T06:54:15.767Z,7.60
2018-10-01T06:54:51.227Z,9.20
2018-10-01T06:55:26.718Z,9.70
2018-10-01T06:56:01.954Z,10.50
2018-10-01T06:56:37.390Z,8.40
2018-10-01T06:57:12.928Z,7.80
2018-10-01T06:57:48.430Z,11.50
2018-10-01T06:58:23.990Z,11.40
2018-10-01T06:58:59.630Z,8.80
2018-10-01T06:59:35.029Z,10.60
2018-10-01T07:00:10.538Z,10.30
2018-10-01T07:00:46.032Z,7.20
2018-10-01T07:01:21.499Z,7.60
2018-10-01T07:01:56.869Z,8.90
2018-10-01T07:02:32.184Z,7.60
2018-10-01T07:03:07.394Z,9.80
2018-10-01T07:03:43.054Z,9.30
2018-10-01T07:04:18.577Z,10.90
2018-10-01T07:04:53.906Z,10.80
2018-10-01T07:05:29.096Z,9.00
2018-10-01T07:06:04.501Z,7.00
2018-10-01T07:06:39.831Z,8.30
2018-10-01T07:07:15.329Z,12.00
2018-10-01T07:07:50.560Z,10.20
2018-10-01T07:08:25.869Z,7.40
2018-10-01T07:09:01.382Z,7.10
2018-10-01T07:09:36.925Z,9.50
2018-10-01T07:10:12.129Z,8.80
2018-10-01T07:10:47.389Z,9.30
2018-10-01T07:11:22.678Z,8.90
2018-10-01T07:11:58.055Z,6.00
2018-10-01T07:12:33.481Z,7.60
2018-10-01T07:13:08.704Z,12.20
2018-10-01T07:13:44.206Z,8.80
2018-10-01T07:14:19.557Z,6.00
2018-10-01T07:14:54.673Z,7.20
2018-10-01T07:15:29.992Z,8.90
2018-10-01T07:16:05.417Z,8.50
2018-10-01T07:16:40.748Z,7.60
2018-10-01T07:17:16.424Z,6.40
2018-10-01T07:17:51.662Z,7.10
2018-10-01T07:18:26.858Z,8.20
2018-10-01T07:19:02.473Z,8.90
2018-10-01T07:19:37.893Z,7.80
2018-10-01T07:20:13.249Z,8.60
2018-10-01T07:20:48.872Z,8.10
2018-10-01T07:21:24.447Z,11.50
2018-10-01T07:21:59.623Z,11.40
2018-10-01T07:22:34.901Z,10.70
2018-10-01T07:23:10.341Z,8.30
2018-10-01T07:23:45.661Z,8.70
2018-10-01T07:24:21.179Z,11.30
2018-10-01T07:24:56.627Z,12.80
2018-10-01T07:25:31.836Z,10.70
2018-10-01T07:26:07.172Z,9.00
2018-10-01T07:26:42.393Z,8.90
2018-10-01T07:27:17.940Z,9.40
2018-10-01T07:27:53.395Z,6.50
2018-10-01T07:28:28.802Z,6.90
2018-10-01T07:29:04.379Z,6.50
2018-10-01T07:29:39.869Z,7.50
2018-10-01T07:30:15.396Z,9.60
2018-10-01T07:30:50.818Z,8.50
2018-10-01T07:31:26.371Z,7.20
2018-10-01T07:32:01.907Z,7.40
2018-10-01T07:32:37.515Z,7.40
2018-10-01T07:33:13.122Z,6.00
2018-10-01T07:33:48.543Z,9.40
2018-10-01T07:34:24.063Z,10.20
2018-10-01T07:34:59.268Z,9.10
2018-10-01T07:35:34.699Z,8.30
2018-10-01T07:36:10.333Z,10.00
2018-10-01T07:36:45.957Z,9.50
2018-10-01T07:37:21.170Z,9.70
2018-10-01T07:37:56.474Z,7.80
2018-10-01T07:38:31.618Z,6.90
2018-10-01T07:39:07.384Z,7.40
2018-10-01T07:39:42.572Z,8.50
2018-10-01T07:40:17.971Z,7.60
2018-10-01T07:40:53.208Z,5.60
2018-10-01T07:41:28.746Z,6.90
2018-10-01T07:42:04.386Z,7.80
2018-10-01T07:42:39.591Z,7.80
2018-10-01T07:43:14.755Z,6.80
2018-10-01T07:43:50.083Z,8.90
2018-10-01T07:44:25.536Z,9.40
2018-10-01T07:45:00.759Z,9.20
2018-10-01T07:45:35.934Z,6.80
2018-10-01T07:46:11.743Z,6.40
2018-10-01T07:46:49.664Z,7.90
2018-10-01T07:47:25.074Z,7.30
2018-10-01T07:48:00.667Z,6.70
2018-10-01T07:48:36.013Z,6.90
2018-10-01T07:49:11.300Z,8.20
2018-10-01T07:49:46.548Z,8.60
2018-10-01T07:50:21.793Z,8.50
2018-10-01T07:50:57.207Z,9.00
2018-10-01T07:51:32.489Z,6.70
2018-10-01T07:52:07.909Z,9.10
2018-10-01T07:52:43.233Z,9.20
2018-10-01T07:53:18.668Z,6.50
2018-10-01T07:53:53.970Z,8.00
2018-10-01T07:54:29.274Z,7.90
2018-10-01T07:55:04.276Z,5.40
2018-10-01T07:55:39.426Z,5.40
2018-10-01T07:56:15.121Z,5.90
2018-10-01T07:56:50.788Z,7.40
2018-10-01T07:57:26.346Z,7.60
2018-10-01T07:58:01.938Z,7.70
2018-10-01T07:58:37.238Z,8.90
2018-10-01T07:59:12.610Z,9.20
2018-10-01T07:59:48.208Z,5.90
2018-10-01T08:00:23.831Z,7.70
2018-10-01T08:00:59.384Z,9.30
2018-10-01T08:01:34.745Z,8.70
2018-10-01T08:02:10.318Z,7.50
2018-10-01T08:02:45.584Z,7.50
2018-10-01T08:03:20.916Z,5.30
2018-10-01T08:03:56.429Z,7.90
2018-10-01T08:04:31.761Z,7.80
2018-10-01T08:05:07.170Z,8.40
2018-10-01T08:05:42.816Z,6.40
2018-10-01T08:06:18.369Z,8.50
2018-10-01T08:06:53.572Z,6.90
2018-10-01T08:07:29.389Z,6.10
2018-10-01T08:08:04.729Z,7.50
2018-10-01T08:08:40.141Z,8.30
2018-10-01T08:09:15.328Z,7.00
2018-10-01T08:09:51.062Z,5.90
2018-10-01T08:10:26.363Z,5.60
2018-10-01T08:11:01.913Z,6.40
2018-10-01T08:11:37.473Z,8.80
2018-10-01T08:12:12.892Z,10.00
2018-10-01T08:12:48.291Z,10.20
2018-10-01T08:13:23.886Z,8.20
2018-10-01T08:13:59.208Z,5.40
2018-10-01T08:14:34.563Z,5.20
2018-10-01T08:15:09.650Z,5.30
2018-10-01T08:15:44.962Z,7.30
2018-10-01T08:16:19.894Z,7.20
2018-10-01T08:16:55.202Z,10.20
2018-10-01T08:17:30.518Z,8.50
2018-10-01T08:18:05.945Z,7.70
2018-10-01T08:18:41.370Z,9.20
2018-10-01T08:19:16.726Z,6.00
2018-10-01T08:19:52.063Z,7.90
2018-10-01T08:20:27.700Z,7.90
2018-10-01T08:21:02.947Z,8.00
2018-10-01T08:21:38.596Z,6.30
2018-10-01T08:22:14.111Z,4.90
2018-10-01T08:22:49.333Z,7.10
2018-10-01T08:23:24.872Z,8.30
2018-10-01T08:24:00.263Z,8.60
2018-10-01T08:24:35.617Z,6.90
2018-10-01T08:25:11.025Z,5.90
2018-10-01T08:25:47.578Z,6.90
2018-10-01T08:26:23.452Z,9.40
2018-10-01T08:26:58.500Z,9.20
2018-10-01T08:27:34.007Z,6.20
2018-10-01T08:28:09.341Z,6.70
2018-10-01T08:28:44.656Z,7.90
2018-10-01T08:29:20.439Z,7.70
2018-10-01T08:29:55.882Z,7.90
2018-10-01T08:30:30.876Z,8.90
2018-10-01T08:31:06.214Z,8.00
2018-10-01T08:31:41.534Z,8.90
2018-10-01T08:32:16.671Z,8.00
2018-10-01T08:32:52.192Z,5.20
2018-10-01T08:33:27.539Z,4.60
2018-10-01T08:34:02.932Z,8.40
2018-10-01T08:34:38.367Z,8.60
2018-10-01T08:35:13.540Z,5.80
2018-10-01T08:35:48.909Z,6.40
2018-10-01T08:36:24.492Z,11.00
2018-10-01T08:37:00.114Z,8.30
2018-10-01T08:37:35.975Z,4.80
2018-10-01T08:38:11.747Z,4.60
2018-10-01T08:38:47.305Z,6.50
2018-10-01T08:39:22.590Z,9.90
2018-10-01T08:39:58.023Z,5.70
2018-10-01T08:40:33.375Z,6.30
2018-10-01T08:41:08.811Z,3.90
2018-10-01T08:41:44.034Z,6.00
2018-10-01T08:42:19.665Z,6.90
2018-10-01T08:42:54.934Z,5.60
2018-10-01T08:43:30.588Z,6.40
2018-10-01T08:44:05.881Z,5.30
2018-10-01T08:44:41.151Z,4.50
2018-10-01T08:45:16.483Z,6.30
2018-10-01T08:45:51.845Z,5.20
2018-10-01T08:46:27.591Z,6.60
2018-10-01T08:47:03.434Z,5.00
2018-10-01T08:47:39.119Z,7.20
2018-10-01T08:48:14.501Z,7.20
2018-10-01T08:48:49.875Z,6.60
2018-10-01T08:49:25.176Z,6.10
2018-10-01T08:50:00.842Z,5.10
2018-10-01T08:50:36.368Z,5.60
2018-10-01T08:51:11.757Z,4.80
2018-10-01T08:51:47.115Z,7.00
2018-10-01T08:52:22.338Z,6.60
2018-10-01T08:52:57.921Z,6.00
2018-10-01T08:53:33.504Z,6.30
2018-10-01T08:54:08.801Z,4.20
2018-10-01T08:54:44.221Z,4.20
2018-10-01T08:55:19.559Z,4.30
2018-10-01T08:55:55.120Z,4.70
2018-10-01T08:56:31.086Z,3.50
2018-10-01T08:57:06.257Z,3.50
2018-10-01T08:57:41.685Z,3.20
2018-10-01T08:58:17.324Z,4.30
2018-10-01T08:58:52.819Z,6.00
2018-10-01T08:59:28.344Z,5.70
2018-10-01T09:00:03.896Z,6.70
2018-10-01T09:00:39.133Z,4.50
2018-10-01T09:01:14.685Z,4.40
2018-10-01T09:01:50.132Z,4.00
2018-10-01T09:02:25.800Z,5.20
2018-10-01T09:03:01.416Z,5.20
2018-10-01T09:03:37.045Z,6.80
2018-10-01T09:04:12.292Z,8.00
2018-10-01T09:04:48.100Z,7.10
2018-10-01T09:05:23.660Z,5.40
2018-10-01T09:05:59.061Z,4.60
2018-10-01T09:06:34.721Z,6.00
2018-10-01T09:07:09.941Z,8.00
2018-10-01T09:07:45.242Z,7.80
2018-10-01T09:08:21.035Z,8.40
2018-10-01T09:08:56.212Z,7.30
2018-10-01T09:09:31.892Z,7.20
2018-10-01T09:10:07.115Z,3.80
2018-10-01T09:10:42.601Z,2.50
2018-10-01T09:11:17.988Z,4.20
2018-10-01T09:11:53.085Z,4.80
2018-10-01T09:12:28.424Z,5.30
2018-10-01T09:13:03.625Z,4.80
2018-10-01T09:13:39.164Z,6.50
2018-10-01T09:14:14.571Z,6.20
2018-10-01T09:14:49.993Z,6.00
2018-10-01T09:15:25.554Z,6.30
2018-10-01T09:16:01.114Z,6.00
2018-10-01T09:16:36.759Z,4.10
2018-10-01T09:17:12.085Z,6.20
2018-10-01T09:17:47.652Z,8.60
2018-10-01T09:18:22.859Z,8.40
2018-10-01T09:18:58.270Z,5.50
2018-10-01T09:19:33.822Z,6.60
2018-10-01T09:20:09.443Z,10.30
2018-10-01T09:20:44.681Z,7.90
2018-10-01T09:21:20.211Z,5.70
2018-10-01T09:21:55.656Z,3.60
2018-10-01T09:22:31.186Z,3.80
2018-10-01T09:23:06.555Z,6.00
2018-10-01T09:23:41.863Z,6.40
2018-10-01T09:24:17.326Z,5.70
2018-10-01T09:24:52.776Z,7.50
2018-10-01T09:25:28.228Z,6.30
2018-10-01T09:26:03.656Z,4.70
2018-10-01T09:26:39.046Z,5.60
2018-10-01T09:27:14.553Z,5.10
2018-10-01T09:27:50.105Z,6.20
2018-10-01T09:28:25.428Z,6.60
2018-10-01T09:29:00.665Z,6.70
2018-10-01T09:29:36.089Z,5.30
2018-10-01T09:30:11.150Z,5.70
2018-10-01T09:30:46.511Z,6.30
2018-10-01T09:31:22.019Z,5.20
2018-10-01T09:31:57.523Z,5.50
2018-10-01T09:32:33.150Z,8.50
2018-10-01T09:33:08.486Z,7.50
2018-10-01T09:33:43.983Z,4.80
2018-10-01T09:34:19.256Z,6.00
2018-10-01T09:34:54.715Z,7.00
2018-10-01T09:35:29.852Z,5.10
2018-10-01T09:36:05.249Z,6.10
2018-10-01T09:36:40.923Z,5.30
2018-10-01T09:37:16.650Z,5.60
2018-10-01T09:37:52.075Z,7.00
2018-10-01T09:38:27.438Z,5.90
2018-10-01T09:39:02.714Z,4.80
2018-10-01T09:39:38.414Z,7.40
2018-10-01T09:40:13.824Z,7.50
2018-10-01T09:40:48.863Z,5.20
2018-10-01T09:41:24.137Z,5.00
2018-10-01T09:41:59.430Z,4.70
2018-10-01T09:42:34.834Z,6.80
2018-10-01T09:43:10.023Z,3.90
2018-10-01T09:43:45.261Z,6.40
2018-10-01T09:44:20.563Z,7.10
2018-10-01T09:44:55.825Z,8.00
2018-10-01T09:45:30.959Z,8.80
2018-10-01T09:46:06.201Z,9.40
2018-10-01T09:46:41.536Z,6.80
2018-10-01T09:47:16.828Z,4.00
2018-10-01T09:47:52.735Z,4.60
2018-10-01T09:48:28.091Z,4.70
2018-10-01T09:49:03.538Z,6.40
2018-10-01T09:49:38.861Z,8.00
2018-10-01T09:50:14.667Z,3.90
2018-10-01T09:50:50.350Z,5.00
2018-10-01T09:51:25.913Z,4.00
2018-10-01T09:52:01.254Z,4.60
2018-10-01T09:52:36.709Z,4.90
2018-10-01T09:53:12.189Z,8.10
2018-10-01T09:53:47.641Z,8.20
2018-10-01T09:54:23.086Z,5.70
2018-10-01T09:54:58.501Z,6.50
2018-10-01T09:55:33.950Z,6.50
2018-10-01T09:56:09.382Z,5.40
2018-10-01T09:56:44.514Z,5.60
2018-10-01T09:57:20.048Z,4.90
2018-10-01T09:57:55.394Z,4.90
2018-10-01T09:58:30.850Z,3.10
2018-10-01T09:59:06.370Z,8.10
2018-10-01T09:59:41.678Z,7.60
2018-10-01T10:00:16.999Z,6.40
2018-10-01T10:00:52.351Z,5.90
2018-10-01T10:01:27.493Z,10.50
2018-10-01T10:02:02.972Z,7.20
2018-10-01T10:02:38.552Z,8.10
2018-10-01T10:03:13.855Z,7.10
2018-10-01T10:03:49.636Z,6.10
2018-10-01T10:04:25.117Z,6.10
2018-10-01T10:05:00.414Z,7.00
2018-10-01T10:05:35.814Z,6.60
2018-10-01T10:06:11.150Z,7.30
2018-10-01T10:06:46.686Z,9.70
2018-10-01T10:07:22.060Z,7.90
2018-10-01T10:07:57.925Z,8.40
2018-10-01T10:08:33.594Z,8.80
2018-10-01T10:09:08.793Z,8.40
2018-10-01T10:09:44.697Z,3.40
2018-10-01T10:10:20.313Z,3.50
2018-10-01T10:10:55.836Z,3.40
2018-10-01T10:11:31.354Z,3.60
2018-10-01T10:12:06.613Z,5.40
2018-10-01T10:12:42.041Z,5.60
2018-10-01T10:13:17.261Z,5.80
2018-10-01T10:13:52.627Z,6.60
2018-10-01T10:14:28.097Z,7.60
2018-10-01T10:15:03.328Z,5.00
2018-10-01T10:15:38.690Z,5.40
2018-10-01T10:16:14.095Z,7.80
2018-10-01T10:16:49.567Z,6.40
2018-10-01T10:17:25.063Z,5.90
2018-10-01T10:18:00.505Z,6.30
2018-10-01T10:18:35.823Z,7.20
2018-10-01T10:19:11.460Z,6.70
2018-10-01T10:19:46.717Z,5.00
2018-10-01T10:20:22.178Z,4.90
2018-10-01T10:20:57.597Z,5.90
2018-10-01T10:21:33.066Z,6.30
2018-10-01T10:22:08.423Z,4.40
2018-10-01T10:22:43.642Z,4.70
2018-10-01T10:23:18.990Z,5.30
2018-10-01T10:23:54.400Z,4.20
2018-10-01T10:24:29.973Z,3.30
2018-10-01T10:25:05.298Z,4.70
2018-10-01T10:25:40.736Z,5.80
2018-10-01T10:26:16.132Z,6.00
2018-10-01T10:26:51.284Z,4.70
2018-10-01T10:27:26.623Z,3.20
2018-10-01T10:28:02.087Z,4.00
2018-10-01T10:28:37.651Z,5.80
2018-10-01T10:29:12.819Z,7.10
2018-10-01T10:29:48.267Z,3.60
2018-10-01T10:30:23.809Z,4.40
2018-10-01T10:30:59.628Z,6.80
2018-10-01T10:31:35.083Z,4.40
2018-10-01T10:32:10.447Z,5.50
2018-10-01T10:32:45.839Z,4.80
2018-10-01T10:33:21.205Z,5.10
2018-10-01T10:33:56.457Z,4.60
2018-10-01T10:34:31.756Z,6.60
2018-10-01T10:35:07.471Z,5.90
2018-10-01T10:35:42.861Z,4.60
2018-10-01T10:36:18.095Z,3.40
2018-10-01T10:36:53.167Z,3.60
2018-10-01T10:37:28.603Z,3.90
2018-10-01T10:38:03.960Z,3.80
2018-10-01T10:38:39.458Z,5.20
2018-10-01T10:39:14.843Z,4.80
2018-10-01T10:39:50.282Z,3.70
2018-10-01T10:40:25.544Z,4.70
2018-10-01T10:41:00.976Z,3.80
2018-10-01T10:41:36.568Z,3.00
2018-10-01T10:42:11.762Z,3.40
2018-10-01T10:42:46.970Z,3.40
2018-10-01T10:43:22.434Z,5.40
2018-10-01T10:43:57.911Z,7.90
2018-10-01T10:44:33.481Z,8.00
2018-10-01T10:45:08.902Z,7.30
2018-10-01T10:45:44.330Z,4.40
2018-10-01T10:46:19.914Z,5.20
2018-10-01T10:46:55.473Z,5.50
2018-10-01T10:47:30.964Z,6.80
2018-10-01T10:48:06.485Z,8.00
2018-10-01T10:48:42.230Z,5.30
2018-10-01T10:49:17.467Z,2.50
2018-10-01T10:49:53.417Z,2.60
2018-10-01T10:50:28.533Z,5.40
2018-10-01T10:51:03.962Z,6.70
2018-10-01T10:51:39.412Z,4.50
2018-10-01T10:52:14.640Z,4.80
2018-10-01T10:52:50.417Z,4.70
2018-10-01T10:53:25.864Z,4.50
2018-10-01T10:54:01.628Z,4.20
2018-10-01T10:54:36.933Z,6.10
2018-10-01T10:55:12.267Z,6.10
2018-10-01T10:55:47.574Z,5.90
2018-10-01T10:56:22.988Z,3.80
2018-10-01T10:56:58.266Z,3.10
2018-10-01T10:57:33.777Z,3.90
2018-10-01T10:58:09.074Z,3.60
2018-10-01T10:58:44.303Z,4.60
2018-10-01T10:59:19.708Z,4.80
2018-10-01T10:59:55.082Z,3.70
2018-10-01T11:00:30.426Z,3.20
2018-10-01T11:01:05.845Z,4.30
2018-10-01T11:01:41.490Z,3.90
2018-10-01T11:02:16.738Z,3.90
2018-10-01T11:02:52.055Z,5.30
2018-10-01T11:03:27.766Z,4.40
2018-10-01T11:04:03.086Z,4.70
2018-10-01T11:04:38.554Z,3.90
2018-10-01T11:05:13.681Z,2.40
2018-10-01T11:05:48.933Z,4.90
2018-10-01T11:06:24.452Z,8.00
2018-10-01T11:06:59.971Z,7.20
2018-10-01T11:07:35.396Z,3.90
2018-10-01T11:08:10.908Z,4.90
2018-10-01T11:08:45.992Z,5.40
2018-10-01T11:09:21.460Z,4.80
2018-10-01T11:09:56.676Z,4.10
2018-10-01T11:10:32.204Z,3.80
2018-10-01T11:11:07.787Z,2.70
2018-10-01T11:11:43.117Z,2.20
2018-10-01T11:12:18.259Z,4.30
2018-10-01T11:12:53.474Z,5.60
2018-10-01T11:13:28.531Z,4.10
2018-10-01T11:14:04.038Z,3.70
2018-10-01T11:14:39.626Z,4.30
2018-10-01T11:15:14.970Z,2.80
2018-10-01T11:15:50.112Z,2.20
2018-10-01T11:16:25.616Z,4.40
2018-10-01T11:17:01.644Z,4.30
2018-10-01T11:17:37.422Z,7.00
2018-10-01T11:18:13.008Z,5.40
2018-10-01T11:18:48.266Z,7.00
2018-10-01T11:19:23.744Z,7.10
2018-10-01T11:19:58.977Z,5.40
2018-10-01T11:20:34.404Z,5.50
2018-10-01T11:21:09.753Z,7.60
2018-10-01T11:21:45.134Z,3.40
2018-10-01T11:22:20.481Z,2.90
2018-10-01T11:22:55.732Z,3.70
2018-10-01T11:23:31.118Z,4.30
2018-10-01T11:24:06.342Z,3.40
2018-10-01T11:24:41.768Z,3.70
2018-10-01T11:25:17.166Z,4.60
2018-10-01T11:25:52.200Z,2.80
2018-10-01T11:26:27.681Z,2.40
2018-10-01T11:27:03.030Z,3.20
2018-10-01T11:27:38.667Z,3.40
2018-10-01T11:28:13.742Z,2.50
2018-10-01T11:28:49.700Z,2.90
2018-10-01T11:29:25.114Z,5.20
2018-10-01T11:30:00.462Z,3.60
2018-10-01T11:30:35.713Z,1.80
2018-10-01T11:31:10.918Z,1.90
2018-10-01T11:31:46.265Z,1.90
2018-10-01T11:32:21.401Z,3.40
2018-10-01T11:32:56.717Z,4.00
2018-10-01T11:33:32.397Z,2.40
2018-10-01T11:34:07.795Z,2.00
2018-10-01T11:34:43.366Z,2.30
2018-10-01T11:35:18.513Z,3.20
2018-10-01T11:35:54.087Z,6.70
2018-10-01T11:36:29.411Z,6.90
2018-10-01T11:37:04.544Z,3.30
2018-10-01T11:37:40.141Z,3.70
2018-10-01T11:38:15.185Z,5.80
2018-10-01T11:38:50.879Z,6.20
2018-10-01T11:39:26.037Z,8.20
2018-10-01T11:40:01.246Z,4.00
2018-10-01T11:40:36.669Z,4.20
2018-10-01T11:41:11.954Z,5.50
2018-10-01T11:41:47.219Z,4.60
2018-10-01T11:42:22.791Z,4.10
2018-10-01T11:42:58.149Z,2.40
2018-10-01T11:43:33.322Z,3.00
2018-10-01T11:44:08.528Z,5.60
2018-10-01T11:44:43.974Z,5.20
2018-10-01T11:45:19.298Z,3.80
2018-10-01T11:45:54.993Z,4.10
2018-10-01T11:46:30.535Z,4.10
2018-10-01T11:47:05.998Z,5.00
2018-10-01T11:47:41.397Z,7.50
2018-10-01T11:48:16.887Z,6.70
2018-10-01T11:48:52.398Z,5.00
2018-10-01T11:49:27.893Z,5.20
2018-10-01T11:50:03.703Z,5.80
2018-10-01T11:50:39.184Z,5.70
2018-10-01T11:51:14.583Z,6.00
2018-10-01T11:51:49.699Z,5.20
2018-10-01T11:52:25.030Z,4.50
2018-10-01T11:53:00.471Z,3.50
2018-10-01T11:53:36.090Z,4.20
2018-10-01T11:54:11.359Z,5.40
2018-10-01T11:54:46.782Z,4.50
2018-10-01T11:55:22.004Z,5.00
2018-10-01T11:55:57.343Z,4.30
2018-10-01T11:56:32.685Z,6.20
2018-10-01T11:57:08.213Z,5.20
2018-10-01T11:57:43.671Z,4.00
2018-10-01T11:58:18.795Z,5.50
2018-10-01T11:58:54.301Z,4.50
2018-10-01T11:59:29.511Z,6.40
2018-10-01T12:00:04.717Z,5.30
2018-10-01T12:00:40.026Z,5.90
2018-10-01T12:01:15.451Z,3.40
2018-10-01T12:01:50.993Z,4.10
2018-10-01T12:02:26.417Z,4.50
2018-10-01T12:03:01.798Z,6.00
2018-10-01T12:03:37.379Z,6.10
2018-10-01T12:04:12.884Z,3.80
2018-10-01T12:04:48.261Z,4.20
2018-10-01T12:05:23.466Z,4.50
2018-10-01T12:05:58.880Z,4.80
2018-10-01T12:06:34.331Z,5.60
2018-10-01T12:07:09.681Z,7.90
2018-10-01T12:07:45.022Z,5.40
2018-10-01T12:08:20.338Z,6.30
2018-10-01T12:08:55.631Z,7.00
2018-10-01T12:09:31.172Z,7.10
2018-10-01T12:10:06.636Z,6.90
2018-10-01T12:10:41.871Z,5.30
2018-10-01T12:11:17.339Z,5.40
2018-10-01T12:11:52.689Z,6.40
2018-10-01T12:12:28.235Z,10.30
2018-10-01T12:13:03.791Z,8.70
2018-10-01T12:13:39.206Z,6.60
2018-10-01T12:14:14.645Z,8.10
2018-10-01T12:14:50.377Z,6.60
2018-10-01T12:15:25.975Z,5.40
2018-10-01T12:16:01.455Z,8.50
2018-10-01T12:16:36.668Z,8.50
2018-10-01T12:17:12.192Z,11.20
2018-10-01T12:17:47.945Z,13.70
2018-10-01T12:18:23.208Z,7.40
2018-10-01T12:18:58.675Z,6.20
2018-10-01T12:19:34.019Z,9.40
2018-10-01T12:20:09.408Z,6.30
2018-10-01T12:20:44.692Z,7.60
2018-10-01T12:21:20.014Z,11.50
2018-10-01T12:21:55.550Z,9.20
2018-10-01T12:22:30.858Z,5.70
2018-10-01T12:23:06.383Z,5.50
2018-10-01T12:23:42.193Z,13.20
2018-10-01T12:24:17.514Z,16.50
2018-10-01T12:24:53.057Z,8.10
2018-10-01T12:25:28.185Z,7.70
2018-10-01T12:26:03.618Z,9.40
2018-10-01T12:26:38.989Z,7.30
2018-10-01T12:27:14.652Z,8.50
2018-10-01T12:27:50.014Z,13.20
2018-10-01T12:28:25.475Z,12.80
2018-10-01T12:29:01.180Z,7.30
2018-10-01T12:29:36.548Z,5.20
2018-10-01T12:30:11.933Z,4.70
2018-10-01T12:30:47.728Z,7.20
2018-10-01T12:31:22.928Z,8.50
2018-10-01T12:31:58.437Z,9.70
2018-10-01T12:32:33.789Z,7.00
2018-10-01T12:33:09.281Z,6.00
2018-10-01T12:33:44.665Z,9.00
2018-10-01T12:34:20.382Z,12.50
2018-10-01T12:34:55.862Z,7.10
2018-10-01T12:35:31.053Z,5.90
2018-10-01T12:36:06.263Z,7.50
2018-10-01T12:36:41.713Z,17.20
2018-10-01T12:37:17.340Z,7.80
2018-10-01T12:37:52.577Z,10.00
2018-10-01T12:38:28.336Z,8.10
2018-10-01T12:39:03.856Z,6.30
2018-10-01T12:39:39.511Z,7.30
2018-10-01T12:40:14.766Z,5.00
2018-10-01T12:40:50.065Z,7.00
2018-10-01T12:41:25.302Z,11.90
2018-10-01T12:42:00.935Z,9.60
2018-10-01T12:42:36.748Z,6.50
2018-10-01T12:43:12.276Z,8.80
2018-10-01T12:43:47.738Z,10.80
2018-10-01T12:44:24.232Z,11.30
2018-10-01T12:44:58.922Z,10.00
2018-10-01T12:45:34.504Z,6.80
2018-10-01T12:46:09.930Z,10.10
2018-10-01T12:46:45.107Z,10.60
2018-10-01T12:47:20.283Z,11.70
2018-10-01T12:47:55.915Z,13.70
2018-10-01T12:48:31.344Z,9.80
2018-10-01T12:49:06.480Z,11.30
2018-10-01T12:49:42.004Z,12.20
2018-10-01T12:50:17.297Z,13.90
2018-10-01T12:50:52.766Z,12.20
2018-10-01T12:51:28.178Z,8.50
2018-10-01T12:52:03.379Z,8.70
2018-10-01T12:52:38.698Z,10.50
2018-10-01T12:53:14.351Z,10.00
2018-10-01T12:53:50.831Z,8.30
2018-10-01T12:54:26.656Z,7.70
2018-10-01T12:55:02.215Z,11.80
2018-10-01T12:55:37.540Z,9.40
2018-10-01T12:56:13.081Z,11.80
2018-10-01T12:56:48.590Z,7.90
2018-10-01T12:57:24.091Z,8.70
2018-10-01T12:57:59.210Z,8.70
2018-10-01T12:58:34.832Z,11.20
2018-10-01T12:59:10.610Z,10.40
2018-10-01T12:59:45.949Z,9.00
2018-10-01T13:00:21.815Z,7.10
2018-10-01T13:00:57.423Z,9.00
2018-10-01T13:01:32.769Z,9.50
2018-10-01T13:02:08.397Z,10.80
2018-10-01T13:02:43.835Z,9.00
2018-10-01T13:03:18.975Z,9.10
2018-10-01T13:03:54.419Z,11.00
2018-10-01T13:04:29.886Z,8.10
2018-10-01T13:05:05.460Z,6.90
2018-10-01T13:05:41.017Z,6.70
2018-10-01T13:06:16.461Z,8.00
2018-10-01T13:06:51.671Z,9.00
2018-10-01T13:07:26.854Z,8.80
2018-10-01T13:08:02.542Z,8.90
2018-10-01T13:08:38.098Z,9.50
2018-10-01T13:09:14.064Z,9.00
2018-10-01T13:09:49.512Z,6.60
2018-10-01T13:10:25.045Z,7.10
2018-10-01T13:11:00.463Z,6.50
2018-10-01T13:11:36.002Z,9.00
2018-10-01T13:12:11.492Z,8.80
2018-10-01T13:12:46.820Z,6.10
2018-10-01T13:13:22.524Z,8.50
2018-10-01T13:13:57.856Z,10.20
2018-10-01T13:14:33.725Z,8.90
2018-10-01T13:15:09.058Z,6.00
2018-10-01T13:15:44.406Z,7.30
2018-10-01T13:16:19.663Z,8.00
2018-10-01T13:16:55.180Z,5.90
2018-10-01T13:17:30.595Z,8.00
2018-10-01T13:18:06.240Z,6.80
2018-10-01T13:18:41.758Z,6.60
2018-10-01T13:19:16.864Z,5.30
2018-10-01T13:19:52.405Z,5.20
2018-10-01T13:20:27.525Z,7.50
2018-10-01T13:21:02.716Z,13.70
2018-10-01T13:21:39.126Z,17.40
2018-10-01T13:22:14.611Z,9.70
2018-10-01T13:22:49.857Z,9.90
2018-10-01T13:23:25.064Z,12.80
2018-10-01T13:24:00.580Z,13.40
2018-10-01T13:24:36.118Z,10.60
2018-10-01T13:25:11.426Z,9.30
2018-10-01T13:25:46.825Z,8.40
2018-10-01T13:26:22.094Z,9.60
2018-10-01T13:26:57.457Z,10.80
2018-10-01T13:27:32.782Z,11.80
2018-10-01T13:28:08.307Z,10.20
2018-10-01T13:28:44.018Z,6.90
2018-10-01T13:29:19.475Z,6.40
2018-10-01T13:29:54.719Z,11.60
2018-10-01T13:30:30.218Z,11.90
2018-10-01T13:31:05.682Z,11.10
2018-10-01T13:31:41.250Z,9.50
2018-10-01T13:32:16.911Z,11.40
2018-10-01T13:32:52.243Z,10.80
2018-10-01T13:33:27.709Z,11.20
2018-10-01T13:34:03.144Z,18.30
2018-10-01T13:34:38.384Z,9.10
2018-10-01T13:35:13.990Z,10.50
2018-10-01T13:35:49.425Z,8.60
2018-10-01T13:36:24.889Z,6.60
2018-10-01T13:37:00.712Z,8.50
2018-10-01T13:37:36.363Z,14.00